Airfield :
LOGIN :

Register | Disclaimer

   EN    FR    IT 

 










Legend :    VFR   Marginal VFR   IFR   Intensive IFR   Very Intensive IFR
Visi :
Ceiling :
>= 8 km
>= 3000ft
5 to 8 km
1000 to 3000 ft
1500m to 5 km
500 to 1000 ft
800 to 1500m
200 to 500 ft
< 800m
< 200 ft
Symbols :   Thunderstorms  Fog  Heavy snow  Heavy precipitations  Wind > 20 kt
SIGMETs :     Misc.  Thunderstorms  Icing  Turbulence  Mountain Waves  Volcanic Ashes






- Airport Elevation : 17 ft
- IATA code : MPL


LFMT - Montpellier Méditerranée

CURRENT METAR :
  • 111500Z AUTO 19010KT CAVOK 27/23 Q1015 TEMPO BKN010

EXPIRED METARs :
  • 111430Z AUTO 19011KT CAVOK 27/23 Q1015 TEMPO BKN010
  • 111400Z AUTO 17010KT CAVOK 28/24 Q1015 TEMPO BKN010
  • 111330Z AUTO 17012KT 140V200 CAVOK 28/23 Q1015 TEMPO BKN010
  • 111300Z AUTO 17012KT CAVOK 28/23 Q1015 TEMPO BKN010
  • 111230Z AUTO 17012KT CAVOK 28/23 Q1015 TEMPO BKN010

TAF TAF LFMT
Valid from the 11 at 15:00 until the 12 at 15:00 UTC


111400Z 1115/1215 VRB05KT CAVOK
TEMPO 1115/1118 16015KT BKN010
TEMPO 1118/1203 BKN006
BECMG 1210/1213 14015KT
TEMPO 1213/1215 VRB25G35KT SHRA BKN040TCU
ATIS : +33 4 67 13 11 70



MET'MAP, your aeronautical weather chart ! - Copyright ORBIFLY December 2007 - Disclaimer

ORBIFLY MET'MAP TEAM :

Programming & Development : Alexandra Zaïnal
Concept & original design : Baudouin d'Aumeries
Assistance for programming : Marc-Olivier Méhu
Technical & hardware support : Manuel Goepfert

Contact : metmap@orbifly.com




SOURCES & CREDITS :

   NOAA